createdAt,value
2019-01-27T00:02:28.304Z,93.20
2019-01-27T00:04:57.763Z,93.10
2019-01-27T00:07:27.401Z,93.10
2019-01-27T00:09:56.994Z,93.10
2019-01-27T00:12:26.584Z,93.20
2019-01-27T00:14:56.026Z,93.20
2019-01-27T00:17:25.497Z,93.20
2019-01-27T00:19:55.519Z,93.10
2019-01-27T00:22:24.934Z,93.20
2019-01-27T00:24:54.694Z,93.10
2019-01-27T00:27:24.197Z,93.20
2019-01-27T00:29:53.888Z,93.20
2019-01-27T00:32:23.282Z,93.30
2019-01-27T00:34:52.622Z,93.30
2019-01-27T00:37:25.628Z,93.40
2019-01-27T00:39:55.028Z,93.40
2019-01-27T00:42:24.702Z,93.40
2019-01-27T00:44:54.242Z,93.20
2019-01-27T00:47:23.690Z,93.20
2019-01-27T00:49:53.255Z,93.30
2019-01-27T00:52:22.861Z,93.30
2019-01-27T00:54:52.265Z,93.20
2019-01-27T00:57:21.844Z,93.20
2019-01-27T00:59:51.363Z,93.20
2019-01-27T01:02:20.900Z,93.10
2019-01-27T01:04:50.455Z,93.10
2019-01-27T01:07:20.280Z,93.00
2019-01-27T01:09:49.679Z,92.90
2019-01-27T01:12:19.125Z,92.90
2019-01-27T01:14:48.717Z,92.70
2019-01-27T01:17:18.195Z,92.70
2019-01-27T01:19:47.723Z,92.70
2019-01-27T01:22:17.122Z,92.70
2019-01-27T01:24:46.846Z,92.70
2019-01-27T01:27:16.351Z,92.60
2019-01-27T01:29:45.829Z,92.50
2019-01-27T01:32:15.327Z,92.50
2019-01-27T01:34:44.658Z,92.60
2019-01-27T01:37:14.038Z,92.70
2019-01-27T01:39:44.219Z,92.70
2019-01-27T01:42:13.580Z,92.70
2019-01-27T01:44:43.226Z,92.70
2019-01-27T01:47:12.547Z,92.70
2019-01-27T01:49:41.941Z,92.90
2019-01-27T01:52:11.429Z,92.90
2019-01-27T01:54:40.764Z,92.90
2019-01-27T01:57:10.126Z,92.90
2019-01-27T01:59:39.667Z,93.00
2019-01-27T02:02:12.591Z,92.90
2019-01-27T02:04:42.112Z,92.90
2019-01-27T02:07:11.464Z,93.40
2019-01-27T02:09:40.916Z,93.10
2019-01-27T02:12:10.724Z,93.10
2019-01-27T02:14:40.298Z,93.20
2019-01-27T02:17:09.902Z,93.20
2019-01-27T02:19:39.573Z,93.30
2019-01-27T02:22:09.109Z,93.30
2019-01-27T02:24:38.559Z,93.30
2019-01-27T02:27:07.975Z,93.40
2019-01-27T02:29:37.520Z,93.30
2019-01-27T02:32:07.173Z,93.30
2019-01-27T02:34:36.928Z,93.40
2019-01-27T02:37:06.466Z,93.50
2019-01-27T02:39:35.855Z,93.50
2019-01-27T02:42:05.567Z,93.50
2019-01-27T02:44:34.970Z,93.50
2019-01-27T02:47:04.760Z,93.50
2019-01-27T02:49:34.262Z,93.40
2019-01-27T02:52:09.078Z,93.50
2019-01-27T02:54:38.526Z,93.50
2019-01-27T02:57:07.914Z,93.40
2019-01-27T02:59:37.286Z,93.40
2019-01-27T03:02:07.037Z,93.50
2019-01-27T03:04:36.444Z,93.60
2019-01-27T03:07:22.949Z,93.50
2019-01-27T03:09:52.219Z,93.50
2019-01-27T03:12:21.578Z,93.50
2019-01-27T03:14:50.979Z,93.40
2019-01-27T03:17:21.722Z,93.60
2019-01-27T03:19:51.058Z,93.60
2019-01-27T03:22:20.525Z,93.50
2019-01-27T03:24:50.067Z,93.50
2019-01-27T03:27:19.412Z,93.60
2019-01-27T03:29:48.772Z,93.40
2019-01-27T03:32:18.169Z,93.40
2019-01-27T03:34:47.529Z,93.40
2019-01-27T03:37:17.018Z,93.50
2019-01-27T03:39:46.392Z,93.50
2019-01-27T03:42:15.786Z,93.70
2019-01-27T03:44:45.076Z,93.80
2019-01-27T03:47:14.437Z,93.80
2019-01-27T03:49:43.967Z,93.80
2019-01-27T03:52:13.366Z,93.70
2019-01-27T03:54:42.797Z,93.70
2019-01-27T03:57:12.108Z,93.70
2019-01-27T03:59:41.765Z,93.70
2019-01-27T04:02:11.171Z,93.70
2019-01-27T04:04:40.515Z,93.80
2019-01-27T04:07:09.998Z,93.60
2019-01-27T04:09:39.403Z,93.60
2019-01-27T04:12:08.852Z,93.60
2019-01-27T04:14:38.195Z,93.60
2019-01-27T04:17:07.596Z,93.70
2019-01-27T04:19:36.957Z,93.80
2019-01-27T04:22:06.477Z,93.90
2019-01-27T04:24:35.933Z,94.20
2019-01-27T04:27:05.605Z,93.90
2019-01-27T04:29:35.084Z,93.90
2019-01-27T04:32:04.454Z,93.90
2019-01-27T04:34:33.829Z,93.80
2019-01-27T04:37:03.180Z,93.70
2019-01-27T04:39:32.532Z,93.60
2019-01-27T04:42:01.924Z,93.50
2019-01-27T04:44:31.250Z,93.50
2019-01-27T04:47:00.800Z,93.50
2019-01-27T04:49:30.029Z,93.50
2019-01-27T04:51:59.387Z,93.50
2019-01-27T04:54:28.730Z,93.50
2019-01-27T04:56:58.164Z,93.90
2019-01-27T04:59:27.635Z,93.40
2019-01-27T05:01:56.967Z,93.50
2019-01-27T05:04:35.155Z,93.60
2019-01-27T05:07:04.737Z,93.60
2019-01-27T05:09:34.074Z,93.60
2019-01-27T05:12:03.580Z,93.70
2019-01-27T05:14:32.889Z,93.60
2019-01-27T05:17:02.262Z,93.60
2019-01-27T05:19:31.638Z,93.70
2019-01-27T05:22:01.005Z,93.60
2019-01-27T05:24:30.776Z,93.60
2019-01-27T05:27:00.144Z,93.60
2019-01-27T05:29:29.473Z,93.50
2019-01-27T05:31:58.729Z,93.50
2019-01-27T05:34:28.237Z,93.60
2019-01-27T05:36:57.748Z,93.60
2019-01-27T05:39:27.466Z,93.60
2019-01-27T05:41:57.788Z,93.60
2019-01-27T05:44:27.246Z,93.60
2019-01-27T05:46:56.763Z,93.70
2019-01-27T05:49:26.337Z,93.60
2019-01-27T05:51:55.787Z,93.50
2019-01-27T05:54:25.441Z,93.50
2019-01-27T05:56:56.688Z,93.50
2019-01-27T05:59:26.601Z,93.40
2019-01-27T06:01:56.014Z,93.40
2019-01-27T06:04:25.594Z,93.50
2019-01-27T06:06:55.271Z,93.60
2019-01-27T06:09:26.044Z,93.60
2019-01-27T06:11:55.634Z,93.60
2019-01-27T06:14:25.520Z,93.70
2019-01-27T06:16:54.954Z,93.60
2019-01-27T06:19:24.413Z,93.60
2019-01-27T06:21:53.763Z,93.70
2019-01-27T06:24:23.203Z,93.80
2019-01-27T06:26:52.613Z,93.80
2019-01-27T06:29:22.019Z,93.80
2019-01-27T06:31:51.447Z,94.00
2019-01-27T06:34:21.792Z,93.70
2019-01-27T06:36:52.278Z,93.70
2019-01-27T06:39:21.688Z,93.70
2019-01-27T06:41:51.496Z,93.70
2019-01-27T06:44:20.983Z,93.60
2019-01-27T06:46:50.483Z,93.50
2019-01-27T06:49:20.037Z,93.60
2019-01-27T06:51:49.591Z,93.70
2019-01-27T06:54:18.885Z,93.70
2019-01-27T06:56:48.550Z,93.70
2019-01-27T06:59:37.007Z,93.70
2019-01-27T07:02:41.035Z,93.50
2019-01-27T07:05:28.341Z,93.50
2019-01-27T07:08:06.341Z,93.40
2019-01-27T07:10:53.516Z,93.40
2019-01-27T07:13:54.432Z,93.50
2019-01-27T07:16:43.092Z,93.50
2019-01-27T07:19:30.443Z,93.40
2019-01-27T07:22:27.671Z,93.80
2019-01-27T07:25:22.252Z,93.70
2019-01-27T07:28:08.436Z,93.70
2019-01-27T07:31:06.113Z,93.70
2019-01-27T07:34:09.582Z,93.70
2019-01-27T07:36:49.979Z,93.50
2019-01-27T07:39:37.729Z,93.70
2019-01-27T07:42:33.455Z,93.70
2019-01-27T07:45:16.166Z,93.40
2019-01-27T07:48:04.727Z,93.70
2019-01-27T07:50:52.635Z,93.60
2019-01-27T07:53:35.280Z,93.50
2019-01-27T07:56:33.355Z,93.30
2019-01-27T07:59:21.447Z,93.20
2019-01-27T08:02:22.063Z,92.80
2019-01-27T08:04:57.987Z,93.00
2019-01-27T08:07:49.611Z,93.10
2019-01-27T08:10:53.388Z,92.90
2019-01-27T08:13:35.803Z,92.80
2019-01-27T08:16:24.426Z,92.60
2019-01-27T08:19:16.144Z,92.80
2019-01-27T08:22:03.375Z,92.80
2019-01-27T08:24:50.893Z,93.10
2019-01-27T08:27:37.868Z,93.10
2019-01-27T08:30:38.385Z,93.10
2019-01-27T08:33:26.900Z,93.00
2019-01-27T08:36:15.106Z,93.20
2019-01-27T08:39:18.594Z,93.20
2019-01-27T08:42:22.665Z,93.30
2019-01-27T08:45:11.119Z,93.10
2019-01-27T08:47:40.675Z,93.10
2019-01-27T08:50:14.560Z,92.80
2019-01-27T08:52:44.052Z,92.70
2019-01-27T08:55:15.414Z,92.60
2019-01-27T08:57:45.033Z,92.40
2019-01-27T09:00:22.029Z,92.40
2019-01-27T09:03:19.728Z,92.10
2019-01-27T09:06:06.946Z,92.10
2019-01-27T09:08:55.723Z,91.90
2019-01-27T09:11:46.990Z,92.00
2019-01-27T09:14:35.508Z,92.10
2019-01-27T09:17:22.806Z,92.00
2019-01-27T09:20:10.282Z,92.00
2019-01-27T09:23:08.229Z,92.60
2019-01-27T09:25:50.157Z,92.20
2019-01-27T09:28:30.649Z,92.10
2019-01-27T09:31:28.177Z,91.90
2019-01-27T09:34:13.354Z,91.70
2019-01-27T09:37:18.941Z,91.80
2019-01-27T09:40:04.017Z,91.70
2019-01-27T09:42:52.643Z,91.50
2019-01-27T09:46:05.049Z,91.40
2019-01-27T09:48:42.194Z,91.40
2019-01-27T09:51:25.312Z,91.40
2019-01-27T09:54:19.032Z,91.40
2019-01-27T09:57:13.647Z,91.40
2019-01-27T10:00:04.991Z,91.40
2019-01-27T10:02:53.559Z,91.50
2019-01-27T10:05:27.932Z,91.50
2019-01-27T10:08:19.506Z,91.00
2019-01-27T10:11:26.569Z,91.10
2019-01-27T10:14:25.498Z,90.90
2019-01-27T10:17:17.113Z,90.70
2019-01-27T10:20:03.798Z,90.90
2019-01-27T10:22:55.743Z,91.10
2019-01-27T10:25:47.313Z,90.70
2019-01-27T10:28:39.027Z,90.50
2019-01-27T10:31:24.490Z,90.30
2019-01-27T10:34:15.740Z,89.90
2019-01-27T10:36:59.105Z,90.30
2019-01-27T10:39:42.537Z,90.00
2019-01-27T10:42:18.136Z,89.70
2019-01-27T10:45:09.335Z,89.50
2019-01-27T10:47:56.710Z,89.90
2019-01-27T10:50:45.197Z,90.00
2019-01-27T10:53:27.437Z,90.00
2019-01-27T10:56:15.958Z,90.00
2019-01-27T10:59:07.879Z,90.00
2019-01-27T11:02:02.624Z,90.00
2019-01-27T11:04:54.195Z,90.00
2019-01-27T11:07:47.117Z,90.00
2019-01-27T11:10:27.647Z,90.00
2019-01-27T11:13:12.599Z,90.10
2019-01-27T11:16:01.321Z,90.30
2019-01-27T11:18:47.756Z,90.30
2019-01-27T11:21:31.010Z,90.10
2019-01-27T11:24:29.073Z,90.10
2019-01-27T11:27:22.147Z,90.20
2019-01-27T11:30:06.011Z,90.00
2019-01-27T11:32:47.263Z,89.80
2019-01-27T11:35:25.619Z,89.90
2019-01-27T11:38:21.227Z,89.50
2019-01-27T11:41:10.023Z,89.80
2019-01-27T11:43:57.288Z,90.00
2019-01-27T11:46:48.729Z,89.70
2019-01-27T11:49:24.132Z,89.80
2019-01-27T11:51:58.160Z,89.70
2019-01-27T11:54:27.880Z,90.00
2019-01-27T11:56:58.077Z,89.70
2019-01-27T11:59:27.991Z,89.50
2019-01-27T12:01:57.617Z,89.40
2019-01-27T12:04:27.574Z,89.50
2019-01-27T12:06:57.236Z,89.30
2019-01-27T12:09:27.084Z,89.40
2019-01-27T12:11:57.283Z,89.30
2019-01-27T12:14:27.674Z,89.30
2019-01-27T12:16:57.496Z,89.50
2019-01-27T12:19:27.155Z,89.00
2019-01-27T12:21:58.187Z,89.60
2019-01-27T12:24:27.801Z,90.00
2019-01-27T12:26:57.589Z,90.10
2019-01-27T12:29:27.089Z,90.00
2019-01-27T12:31:56.683Z,90.10
2019-01-27T12:34:26.597Z,90.00
2019-01-27T12:36:56.343Z,89.30
2019-01-27T12:39:26.313Z,89.60
2019-01-27T12:41:55.921Z,88.90
2019-01-27T12:44:26.131Z,88.80
2019-01-27T12:46:55.868Z,89.10
2019-01-27T12:49:25.606Z,88.90
2019-01-27T12:51:55.272Z,87.90
2019-01-27T12:54:25.036Z,88.80
2019-01-27T12:57:03.893Z,89.30
2019-01-27T12:59:33.818Z,89.10
2019-01-27T13:02:03.522Z,89.60
2019-01-27T13:04:33.179Z,89.10
2019-01-27T13:07:03.166Z,89.10
2019-01-27T13:09:33.288Z,89.60
2019-01-27T13:12:02.873Z,90.00
2019-01-27T13:14:32.575Z,90.00
2019-01-27T13:17:02.431Z,88.90
2019-01-27T13:19:32.082Z,90.10
2019-01-27T13:22:02.030Z,90.10
2019-01-27T13:24:32.098Z,90.40
2019-01-27T13:27:01.975Z,90.70
2019-01-27T13:29:31.951Z,90.60
2019-01-27T13:32:01.959Z,90.40
2019-01-27T13:34:31.954Z,90.60
2019-01-27T13:37:01.949Z,90.40
2019-01-27T13:39:32.132Z,90.30
2019-01-27T13:42:02.005Z,90.70
2019-01-27T13:44:31.870Z,90.30
2019-01-27T13:47:01.628Z,90.60
2019-01-27T13:49:31.556Z,90.70
2019-01-27T13:52:01.463Z,91.10
2019-01-27T13:54:31.366Z,91.20
2019-01-27T13:57:01.255Z,91.40
2019-01-27T13:59:31.311Z,91.40
2019-01-27T14:02:01.316Z,91.70
2019-01-27T14:04:32.961Z,91.30
2019-01-27T14:07:02.618Z,91.20
2019-01-27T14:09:32.461Z,91.60
2019-01-27T14:12:02.461Z,91.70
2019-01-27T14:14:32.380Z,92.20
2019-01-27T14:17:02.274Z,92.20
2019-01-27T14:19:31.928Z,92.30
2019-01-27T14:22:06.130Z,92.40
2019-01-27T14:24:36.206Z,92.40
2019-01-27T14:27:06.056Z,92.60
2019-01-27T14:29:35.866Z,92.40
2019-01-27T14:32:05.820Z,92.10
2019-01-27T14:34:35.708Z,92.40
2019-01-27T14:37:05.701Z,92.20
2019-01-27T14:39:35.424Z,92.70
2019-01-27T14:42:05.478Z,92.10
2019-01-27T14:44:35.404Z,92.10
2019-01-27T14:47:05.858Z,92.30
2019-01-27T14:49:35.510Z,92.10
2019-01-27T14:52:05.885Z,92.20
2019-01-27T14:54:35.558Z,92.00
2019-01-27T14:57:05.238Z,92.20
2019-01-27T14:59:35.308Z,92.20
2019-01-27T15:02:05.568Z,92.30
2019-01-27T15:04:35.427Z,92.30
2019-01-27T15:07:05.595Z,92.20
2019-01-27T15:09:35.572Z,92.20
2019-01-27T15:12:05.944Z,92.00
2019-01-27T15:14:36.211Z,92.00
2019-01-27T15:17:06.182Z,92.10
2019-01-27T15:19:35.998Z,92.10
2019-01-27T15:22:05.677Z,92.10
2019-01-27T15:24:35.498Z,92.20
2019-01-27T15:27:05.456Z,92.30
2019-01-27T15:29:35.413Z,92.10
2019-01-27T15:32:05.289Z,92.30
2019-01-27T15:34:35.537Z,92.30
2019-01-27T15:37:08.506Z,92.10
2019-01-27T15:39:38.791Z,91.70
2019-01-27T15:42:08.822Z,92.10
2019-01-27T15:44:39.071Z,92.10
2019-01-27T15:47:09.167Z,92.20
2019-01-27T15:49:39.279Z,92.10
2019-01-27T15:52:09.527Z,92.10
2019-01-27T15:54:39.207Z,92.10
2019-01-27T15:57:09.112Z,92.20
2019-01-27T15:59:39.159Z,92.10
2019-01-27T16:02:09.001Z,92.20
2019-01-27T16:04:38.888Z,92.10
2019-01-27T16:07:08.939Z,92.50
2019-01-27T16:09:38.734Z,92.70
2019-01-27T16:12:08.489Z,92.80
2019-01-27T16:14:38.307Z,92.90
2019-01-27T16:17:08.397Z,92.90
2019-01-27T16:19:38.520Z,92.80
2019-01-27T16:22:08.587Z,93.10
2019-01-27T16:24:39.295Z,93.10
2019-01-27T16:27:09.280Z,93.10
2019-01-27T16:29:48.973Z,93.20
2019-01-27T16:32:25.688Z,93.30
2019-01-27T16:35:02.132Z,93.30
2019-01-27T16:37:31.900Z,93.00
2019-01-27T16:40:01.741Z,93.20
2019-01-27T16:42:31.591Z,93.20
2019-01-27T16:45:01.683Z,93.20
2019-01-27T16:47:31.582Z,93.50
2019-01-27T16:50:02.307Z,93.00
2019-01-27T16:52:32.353Z,93.50
2019-01-27T16:55:02.265Z,93.70
2019-01-27T16:57:32.544Z,93.90
2019-01-27T17:00:02.305Z,94.10
2019-01-27T17:02:32.257Z,94.10
2019-01-27T17:05:03.008Z,93.80
2019-01-27T17:07:33.248Z,94.40
2019-01-27T17:10:03.026Z,94.30
2019-01-27T17:12:32.890Z,94.30
2019-01-27T17:15:05.575Z,94.00
2019-01-27T17:17:43.860Z,94.40
2019-01-27T17:20:17.509Z,94.60
2019-01-27T17:22:47.160Z,94.80
2019-01-27T17:25:17.603Z,94.80
2019-01-27T17:27:47.950Z,94.60
2019-01-27T17:30:18.575Z,94.30
2019-01-27T17:32:48.955Z,94.30
2019-01-27T17:35:19.624Z,94.40
2019-01-27T17:37:49.363Z,94.70
2019-01-27T17:40:19.263Z,94.50
2019-01-27T17:42:49.215Z,94.70
2019-01-27T17:45:19.313Z,94.60
2019-01-27T17:47:49.700Z,94.60
2019-01-27T17:50:19.828Z,94.20
2019-01-27T17:52:49.971Z,94.00
2019-01-27T17:55:37.784Z,94.30
2019-01-27T17:58:39.919Z,94.40
2019-01-27T18:01:31.878Z,94.40
2019-01-27T18:04:29.831Z,94.60
2019-01-27T18:07:34.391Z,94.60
2019-01-27T18:10:31.348Z,94.50
2019-01-27T18:13:13.790Z,94.60
2019-01-27T18:15:43.765Z,94.20
2019-01-27T18:18:13.854Z,94.40
2019-01-27T18:20:43.922Z,94.90
2019-01-27T18:23:13.943Z,94.60
2019-01-27T18:25:43.913Z,94.50
2019-01-27T18:28:17.326Z,94.50
2019-01-27T18:30:48.822Z,94.40
2019-01-27T18:33:18.969Z,94.40
2019-01-27T18:35:53.446Z,94.70
2019-01-27T18:38:23.572Z,94.80
2019-01-27T18:40:55.430Z,94.80
2019-01-27T18:43:26.005Z,94.60
2019-01-27T18:46:02.275Z,94.50
2019-01-27T18:48:34.146Z,94.50
2019-01-27T18:51:07.558Z,94.40
2019-01-27T18:53:55.372Z,94.40
2019-01-27T18:56:36.833Z,94.20
2019-01-27T18:59:30.658Z,93.90
2019-01-27T19:02:19.831Z,93.70
2019-01-27T19:05:10.604Z,93.80
2019-01-27T19:07:59.825Z,93.60
2019-01-27T19:10:41.015Z,94.00
2019-01-27T19:13:30.065Z,94.10
2019-01-27T19:16:27.746Z,93.90
2019-01-27T19:19:01.903Z,93.70
2019-01-27T19:21:51.182Z,93.80
2019-01-27T19:24:40.831Z,93.70
2019-01-27T19:27:35.600Z,93.50
2019-01-27T19:30:45.198Z,93.40
2019-01-27T19:33:23.045Z,93.60
2019-01-27T19:36:03.947Z,93.70
2019-01-27T19:38:51.995Z,93.90
2019-01-27T19:41:41.376Z,94.10
2019-01-27T19:44:29.212Z,94.10
2019-01-27T19:47:18.911Z,93.30
2019-01-27T19:50:04.483Z,93.40
2019-01-27T19:52:43.992Z,94.00
2019-01-27T19:55:27.886Z,94.30
2019-01-27T19:58:22.342Z,94.40
2019-01-27T20:01:08.880Z,94.40
2019-01-27T20:03:46.045Z,94.50
2019-01-27T20:06:45.403Z,94.70
2019-01-27T20:09:41.947Z,94.90
2019-01-27T20:12:29.978Z,94.90
2019-01-27T20:15:12.870Z,94.60
2019-01-27T20:17:53.741Z,94.70
2019-01-27T20:20:35.819Z,94.50
2019-01-27T20:23:41.653Z,94.60
2019-01-27T20:26:41.439Z,94.50
2019-01-27T20:29:20.728Z,94.60
2019-01-27T20:32:12.858Z,94.50
2019-01-27T20:35:05.377Z,94.20
2019-01-27T20:37:55.093Z,93.80
2019-01-27T20:40:43.933Z,93.90
2019-01-27T20:43:37.834Z,93.80
2019-01-27T20:46:26.898Z,93.50
2019-01-27T20:49:15.693Z,93.50
2019-01-27T20:51:54.297Z,93.90
2019-01-27T20:54:46.987Z,93.50
2019-01-27T20:57:26.678Z,93.50
2019-01-27T21:00:29.310Z,93.50
2019-01-27T21:03:24.303Z,93.50
2019-01-27T21:06:11.799Z,93.10
2019-01-27T21:08:59.844Z,93.40
2019-01-27T21:11:48.499Z,93.20
2019-01-27T21:14:35.668Z,92.90
2019-01-27T21:17:31.940Z,92.90
2019-01-27T21:20:07.467Z,93.00
2019-01-27T21:22:39.685Z,93.10
2019-01-27T21:25:11.433Z,93.00
2019-01-27T21:27:41.369Z,92.60
2019-01-27T21:30:13.816Z,92.40
2019-01-27T21:32:43.968Z,92.50
2019-01-27T21:35:15.003Z,92.70
2019-01-27T21:37:44.815Z,92.70
2019-01-27T21:40:20.199Z,92.50
2019-01-27T21:42:49.940Z,92.50
2019-01-27T21:45:20.126Z,92.10
2019-01-27T21:47:49.741Z,92.00
2019-01-27T21:50:20.155Z,92.00
2019-01-27T21:52:49.696Z,92.00
2019-01-27T21:55:19.521Z,92.20
2019-01-27T21:57:49.233Z,92.30
2019-01-27T22:00:23.513Z,92.10
2019-01-27T22:02:53.206Z,92.00
2019-01-27T22:05:22.856Z,91.80
2019-01-27T22:07:52.236Z,92.10
2019-01-27T22:10:21.618Z,92.20
2019-01-27T22:12:51.118Z,92.20
2019-01-27T22:15:20.513Z,92.20
2019-01-27T22:17:49.996Z,92.20
2019-01-27T22:20:19.386Z,92.40
2019-01-27T22:22:48.995Z,92.50
2019-01-27T22:25:18.676Z,92.60
2019-01-27T22:27:48.102Z,92.80
2019-01-27T22:30:19.776Z,92.60
2019-01-27T22:32:49.390Z,92.40
2019-01-27T22:35:19.015Z,92.40
2019-01-27T22:37:48.522Z,92.30
2019-01-27T22:40:18.137Z,92.30
2019-01-27T22:42:47.744Z,92.30
2019-01-27T22:45:17.669Z,92.00
2019-01-27T22:47:47.269Z,92.20
2019-01-27T22:50:18.087Z,92.40
2019-01-27T22:52:47.803Z,92.40
2019-01-27T22:55:17.257Z,92.40
2019-01-27T22:57:46.795Z,92.30
2019-01-27T23:00:46.093Z,92.10
2019-01-27T23:03:15.846Z,92.30
2019-01-27T23:05:45.432Z,92.20
2019-01-27T23:08:15.063Z,92.10
2019-01-27T23:10:44.410Z,92.10
2019-01-27T23:13:14.098Z,92.20
2019-01-27T23:15:43.658Z,92.10
2019-01-27T23:18:13.434Z,92.20
2019-01-27T23:20:42.835Z,92.20
2019-01-27T23:23:12.318Z,92.20
2019-01-27T23:25:41.851Z,92.20
2019-01-27T23:28:11.561Z,92.30
2019-01-27T23:30:41.012Z,92.40
2019-01-27T23:33:10.463Z,92.40
2019-01-27T23:35:39.873Z,92.70
2019-01-27T23:38:09.682Z,93.00
2019-01-27T23:40:39.190Z,93.00
2019-01-27T23:43:08.550Z,93.00
2019-01-27T23:45:38.031Z,93.30
2019-01-27T23:48:07.500Z,93.00
2019-01-27T23:50:37.005Z,93.20
2019-01-27T23:53:06.456Z,93.20
2019-01-27T23:55:35.948Z,93.30
2019-01-27T23:58:05.648Z,93.30
